Silencio — MLGX2 — position and weather

sailwx.info

Track history (hours):
 
Tides and Currents Weather Stations Pressure Air Temp Water Temp Dewpoint Dewpoint Depression Visibility Wind Speed Wind Dir Waves Ship Positions

Silencio

Last reported at 2016-Jun-25 16:27 UTC. Time now 2016-Jun-26 19:10 UTC.
Position N 43°17' E 006°40'.

Length 49 m; draft 3.8 m.

Type: Sailing vessel. MMSI: 232747000.

Date/timePositionNaut miles runAvg speedWind from/ knotsBaromVisibWave heightAir tempDewpointWater temp
2016-Jun-25 16:27N 43°17' E 006°40'4 0.9
2016-Jun-25 12:24N 43°13' E 006°40'0 0.0
2016-Jun-25 11:30N 43°13' E 006°40'18 9.0
2016-Jun-25 09:28N 43°27' E 006°57'7 7.2
2016-Jun-25 08:33N 43°32' E 007°02'0 0.0
2016-Jun-25 07:34N 43°32' E 007°02'0 0.0
2016-Jun-25 06:33N 43°32' E 007°02'0 0.0
2016-Jun-25 05:33N 43°32' E 007°02'0 0.0
2016-Jun-25 04:33N 43°32' E 007°02'0 0.0
2016-Jun-25 03:33N 43°32' E 007°02'0 0.0
2016-Jun-25 02:33N 43°32' E 007°02'0 0.0
2016-Jun-25 01:33N 43°32' E 007°02'0 0.0
2016-Jun-25 00:33N 43°32' E 007°02'0 0.0
2016-Jun-24 23:33N 43°32' E 007°02'0 0.0
2016-Jun-24 22:33N 43°32' E 007°02'0 0.0
2016-Jun-24 21:33N 43°32' E 007°02'0 0.0
2016-Jun-24 20:33N 43°32' E 007°02'0 0.0
2016-Jun-24 19:33N 43°32' E 007°02'0 0.0
2016-Jun-24 18:33N 43°32' E 007°02'0 0.0
2016-Jun-24 17:33N 43°32' E 007°02'0 0.0
2016-Jun-24 16:33N 43°32' E 007°02'0 0.0
2016-Jun-24 15:33N 43°32' E 007°02'0 0.0
2016-Jun-24 14:33N 43°32' E 007°02'5 4.7
2016-Jun-24 13:33N 43°32' E 007°08'3 2.9
2016-Jun-24 12:33N 43°35' E 007°08'0 0.0
2016-Jun-24 11:33N 43°35' E 007°08'0 0.0
2016-Jun-24 10:33N 43°35' E 007°08'0 0.0
2016-Jun-24 09:33N 43°35' E 007°08'0 0.0
2016-Jun-24 08:33N 43°35' E 007°08'0 0.0
2016-Jun-24 07:33N 43°35' E 007°08'0 0.0
2016-Jun-24 04:33N 43°35' E 007°08'0 0.0
2016-Jun-24 03:33N 43°35' E 007°08'0 0.0
2016-Jun-24 02:21N 43°35' E 007°08'0 0.0
2016-Jun-24 01:33N 43°35' E 007°08'0 0.0
2016-Jun-24 00:33N 43°35' E 007°08'0 0.0
2016-Jun-23 23:33N 43°35' E 007°08'0 0.0
2016-Jun-23 22:33N 43°35' E 007°08'0 0.0
2016-Jun-23 21:33N 43°35' E 007°08'0 0.0
2016-Jun-23 20:27N 43°35' E 007°08'0 0.0
2016-Jun-23 19:33N 43°35' E 007°08'0 0.0
2016-Jun-23 18:33N 43°35' E 007°08'0 0.0
2016-Jun-23 17:33N 43°35' E 007°08'0 0.0
2016-Jun-23 16:33N 43°35' E 007°08'0 0.0
2016-Jun-23 15:33N 43°35' E 007°08'0 0.0
2016-Jun-23 14:33N 43°35' E 007°08'0 0.0
2016-Jun-23 13:33N 43°35' E 007°08'0 0.0
2016-Jun-23 12:33N 43°35' E 007°08'0 0.0
2016-Jun-23 11:33N 43°35' E 007°08'0 0.0
2016-Jun-23 10:21N 43°35' E 007°08'0 0.0
2016-Jun-23 09:09N 43°35' E 007°08'3 5.7
2016-Jun-23 08:33N 43°32' E 007°07'4 3.8
2016-Jun-23 07:29N 43°32' E 007°02'0 0.0
2016-Jun-23 05:32N 43°32' E 007°02'0 0.0
2016-Jun-23 04:32N 43°32' E 007°02'0 0.0
2016-Jun-23 03:32N 43°32' E 007°02'0 0.0
2016-Jun-23 02:32N 43°32' E 007°02'0 0.0
2016-Jun-23 01:32N 43°32' E 007°02'0 0.0
2016-Jun-23 00:32N 43°32' E 007°02'0 0.0
2016-Jun-22 23:29N 43°32' E 007°02'0 0.0
2016-Jun-22 22:29N 43°32' E 007°02'0 0.0
2016-Jun-22 21:26N 43°32' E 007°02'0 0.0
2016-Jun-22 20:29N 43°32' E 007°02'0 0.0
2016-Jun-22 19:29N 43°32' E 007°02'0 0.0
2016-Jun-22 18:29N 43°32' E 007°02'0 0.0
2016-Jun-22 17:29N 43°32' E 007°02'0 0.0
2016-Jun-22 16:32N 43°32' E 007°02'0 0.0
2016-Jun-22 15:32N 43°32' E 007°02'0 0.0
2016-Jun-22 14:17N 43°32' E 007°02'0 0.0
2016-Jun-22 13:29N 43°32' E 007°02'0 0.0
2016-Jun-22 12:32N 43°32' E 007°02'0 0.0
2016-Jun-22 11:32N 43°32' E 007°02'0 0.0
2016-Jun-22 10:23N 43°32' E 007°02'0 0.0
2016-Jun-22 09:23N 43°32' E 007°02'0 0.0
2016-Jun-22 08:32N 43°32' E 007°02'0 0.0
2016-Jun-22 07:32N 43°32' E 007°02'0 0.0
2016-Jun-22 06:23N 43°32' E 007°02'0 0.0
2016-Jun-22 05:29N 43°32' E 007°02'0 0.0
2016-Jun-22 04:29N 43°32' E 007°02'0 0.0
2016-Jun-22 03:32N 43°32' E 007°02'0 0.0
2016-Jun-22 02:32N 43°32' E 007°02'0 0.0
2016-Jun-22 01:29N 43°32' E 007°02'0 0.0
2016-Jun-22 00:08N 43°32' E 007°02'0 0.0
2016-Jun-21 23:32N 43°32' E 007°02'0 0.0
2016-Jun-21 22:32N 43°32' E 007°02'0 0.0
2016-Jun-21 20:17N 43°32' E 007°02'0 0.0
2016-Jun-21 19:32N 43°32' E 007°02'0 0.0
2016-Jun-21 18:32N 43°32' E 007°02'0 0.0
2016-Jun-21 17:23N 43°32' E 007°02'0 0.0
2016-Jun-21 16:29N 43°32' E 007°02'0 0.0
2016-Jun-21 15:32N 43°32' E 007°02'0 0.4
2016-Jun-21 14:32N 43°32' E 007°01'0 0.2
2016-Jun-21 13:33N 43°32' E 007°01'  
2016-Jun-19 05:33N 43°23' E 007°01'1111.5
2016-Jun-19 04:34N 43°29' E 007°14'1211.5
2016-Jun-19 03:33N 43°34' E 007°28'4511.2
2016-Jun-18 23:33N 43°55' E 008°23'1110.6
2016-Jun-18 22:33N 44°01' E 008°36'1110.5
2016-Jun-18 21:33N 44°06' E 008°48'1110.7
2016-Jun-18 20:33N 44°12' E 009°00'1010.4
2016-Jun-18 19:33N 44°17' E 009°13'1 1.0
2016-Jun-18 18:23N 44°18' E 009°13'0 0.5
2016-Jun-18 17:33N 44°18' E 009°13'0 0.0
2016-Jun-18 16:27N 44°18' E 009°13'0 0.0
2016-Jun-18 15:33N 44°18' E 009°13'0 0.0
2016-Jun-18 14:33N 44°18' E 009°13'0 0.0
2016-Jun-18 13:33N 44°18' E 009°13'0 0.0
2016-Jun-18 12:30N 44°18' E 009°13'0 0.0
2016-Jun-18 11:33N 44°18' E 009°13'0 0.0
2016-Jun-18 10:33N 44°18' E 009°13'0 0.0
2016-Jun-18 09:33N 44°18' E 009°13'0 0.0
2016-Jun-18 08:30N 44°18' E 009°13'0 0.0
2016-Jun-18 07:33N 44°18' E 009°13'0 0.0
2016-Jun-18 06:33N 44°18' E 009°13'0 0.0
2016-Jun-18 05:33N 44°18' E 009°13'0 0.0
2016-Jun-18 04:27N 44°18' E 009°13'0 0.0
2016-Jun-18 03:33N 44°18' E 009°13'0 0.0
2016-Jun-18 02:30N 44°18' E 009°13'0 0.0
2016-Jun-18 01:33N 44°18' E 009°13'0 0.0
2016-Jun-18 00:33N 44°18' E 009°13'0 0.0
2016-Jun-17 23:30N 44°18' E 009°13'0 0.0
2016-Jun-17 22:33N 44°18' E 009°13'0 0.0
2016-Jun-17 21:27N 44°18' E 009°13'0 0.0
2016-Jun-17 20:33N 44°18' E 009°13'0 0.0
2016-Jun-17 19:30N 44°18' E 009°13'0 0.0
2016-Jun-17 18:15N 44°18' E 009°13'0 0.1
2016-Jun-17 17:28N 44°18' E 009°13'1011.5
2016-Jun-17 16:34N 44°12' E 009°25'1211.9
2016-Jun-17 15:34N 44°06' E 009°39'1010.3
2016-Jun-17 14:33N 44°01' E 009°52'2 2.2
2016-Jun-17 13:31N 44°03' E 009°51'0 0.0
2016-Jun-17 12:31N 44°03' E 009°51'0 0.0
2016-Jun-17 11:31N 44°03' E 009°51'0 0.0
2016-Jun-17 10:31N 44°03' E 009°51'0 0.0
2016-Jun-17 09:31N 44°03' E 009°51'0 0.0
2016-Jun-17 08:31N 44°03' E 009°51'0 0.0
2016-Jun-17 07:31N 44°03' E 009°51'0 0.0
2016-Jun-17 06:31N 44°03' E 009°51'0 0.0
2016-Jun-17 05:31N 44°03' E 009°51'0 0.0
2016-Jun-17 04:31N 44°03' E 009°51'0 0.0
2016-Jun-17 03:31N 44°03' E 009°51'0 0.0
2016-Jun-17 02:31N 44°03' E 009°51'0 0.0
2016-Jun-17 01:31N 44°03' E 009°51'0 0.0
2016-Jun-17 00:31N 44°03' E 009°51'0 0.0
2016-Jun-16 23:28N 44°03' E 009°51'0 0.0
2016-Jun-16 22:31N 44°03' E 009°51'0 0.0
2016-Jun-16 21:31N 44°03' E 009°51'0 0.0
2016-Jun-16 20:31N 44°03' E 009°51'0 0.0
2016-Jun-16 19:31N 44°03' E 009°51'0 0.0
2016-Jun-16 18:31N 44°03' E 009°51'0 0.0
2016-Jun-16 17:31N 44°03' E 009°51'0 0.0
2016-Jun-16 16:31N 44°03' E 009°51'0 0.0
2016-Jun-16 15:31N 44°03' E 009°51'0 0.0
2016-Jun-16 14:28N 44°03' E 009°51'0 0.0
2016-Jun-16 13:31N 44°03' E 009°51'0 0.0
2016-Jun-16 12:31N 44°03' E 009°51'0 0.0
2016-Jun-16 11:31N 44°03' E 009°51'0 0.0
2016-Jun-16 10:28N 44°03' E 009°51'0 0.0
2016-Jun-16 09:31N 44°03' E 009°51'0 0.0
2016-Jun-16 08:31N 44°03' E 009°51'0 0.0
2016-Jun-16 07:31N 44°03' E 009°51'0 0.0
2016-Jun-16 06:31N 44°03' E 009°51'0 0.0
2016-Jun-16 05:31N 44°03' E 009°51'3 2.8
2016-Jun-16 04:34N 44°02' E 009°54'1010.2
2016-Jun-16 03:33N 43°52' E 009°56'1010.2
2016-Jun-16 02:33N 43°42' E 010°01'1010.5
2016-Jun-16 01:34N 43°32' E 010°05'1111.1
2016-Jun-16 00:34N 43°21' E 010°09'1110.8
2016-Jun-15 23:34N 43°11' E 010°13'1111.1
2016-Jun-15 22:33N 42°60' E 010°17'12 2.4
2016-Jun-15 17:33N 42°48' E 010°20'0 0.0
2016-Jun-15 16:33N 42°48' E 010°20'  
Track history (hours):
 
Tides and Currents Weather Stations Pressure Air Temp Water Temp Dewpoint Dewpoint Depression Visibility Wind Speed Wind Dir Waves Ship Positions

Silencio

Last reported at 2016-Jun-25 16:27 UTC. Time now 2016-Jun-26 19:10 UTC.
Position N 43°17' E 006°40'.

Length 49 m; draft 3.8 m.

Type: Sailing vessel. MMSI: 232747000.

Date/timePositionNaut miles runAvg speedWind from/ knotsBaromVisibWave heightAir tempDewpointWater temp
2016-Jun-25 16:27N 43°17' E 006°40'4 0.9
2016-Jun-25 12:24N 43°13' E 006°40'0 0.0
2016-Jun-25 11:30N 43°13' E 006°40'18 9.0
2016-Jun-25 09:28N 43°27' E 006°57'7 7.2
2016-Jun-25 08:33N 43°32' E 007°02'0 0.0
2016-Jun-25 07:34N 43°32' E 007°02'0 0.0
2016-Jun-25 06:33N 43°32' E 007°02'0 0.0
2016-Jun-25 05:33N 43°32' E 007°02'0 0.0
2016-Jun-25 04:33N 43°32' E 007°02'0 0.0
2016-Jun-25 03:33N 43°32' E 007°02'0 0.0
2016-Jun-25 02:33N 43°32' E 007°02'0 0.0
2016-Jun-25 01:33N 43°32' E 007°02'0 0.0
2016-Jun-25 00:33N 43°32' E 007°02'0 0.0
2016-Jun-24 23:33N 43°32' E 007°02'0 0.0
2016-Jun-24 22:33N 43°32' E 007°02'0 0.0
2016-Jun-24 21:33N 43°32' E 007°02'0 0.0
2016-Jun-24 20:33N 43°32' E 007°02'0 0.0
2016-Jun-24 19:33N 43°32' E 007°02'0 0.0
2016-Jun-24 18:33N 43°32' E 007°02'0 0.0
2016-Jun-24 17:33N 43°32' E 007°02'0 0.0
2016-Jun-24 16:33N 43°32' E 007°02'0 0.0
2016-Jun-24 15:33N 43°32' E 007°02'0 0.0
2016-Jun-24 14:33N 43°32' E 007°02'5 4.7
2016-Jun-24 13:33N 43°32' E 007°08'3 2.9
2016-Jun-24 12:33N 43°35' E 007°08'0 0.0
2016-Jun-24 11:33N 43°35' E 007°08'0 0.0
2016-Jun-24 10:33N 43°35' E 007°08'0 0.0
2016-Jun-24 09:33N 43°35' E 007°08'0 0.0
2016-Jun-24 08:33N 43°35' E 007°08'0 0.0
2016-Jun-24 07:33N 43°35' E 007°08'0 0.0
2016-Jun-24 04:33N 43°35' E 007°08'0 0.0
2016-Jun-24 03:33N 43°35' E 007°08'0 0.0
2016-Jun-24 02:21N 43°35' E 007°08'0 0.0
2016-Jun-24 01:33N 43°35' E 007°08'0 0.0
2016-Jun-24 00:33N 43°35' E 007°08'0 0.0
2016-Jun-23 23:33N 43°35' E 007°08'0 0.0
2016-Jun-23 22:33N 43°35' E 007°08'0 0.0
2016-Jun-23 21:33N 43°35' E 007°08'0 0.0
2016-Jun-23 20:27N 43°35' E 007°08'0 0.0
2016-Jun-23 19:33N 43°35' E 007°08'0 0.0
2016-Jun-23 18:33N 43°35' E 007°08'0 0.0
2016-Jun-23 17:33N 43°35' E 007°08'0 0.0
2016-Jun-23 16:33N 43°35' E 007°08'0 0.0
2016-Jun-23 15:33N 43°35' E 007°08'0 0.0
2016-Jun-23 14:33N 43°35' E 007°08'0 0.0
2016-Jun-23 13:33N 43°35' E 007°08'0 0.0
2016-Jun-23 12:33N 43°35' E 007°08'0 0.0
2016-Jun-23 11:33N 43°35' E 007°08'0 0.0
2016-Jun-23 10:21N 43°35' E 007°08'0 0.0
2016-Jun-23 09:09N 43°35' E 007°08'3 5.7
2016-Jun-23 08:33N 43°32' E 007°07'4 3.8
2016-Jun-23 07:29N 43°32' E 007°02'0 0.0
2016-Jun-23 05:32N 43°32' E 007°02'0 0.0
2016-Jun-23 04:32N 43°32' E 007°02'0 0.0
2016-Jun-23 03:32N 43°32' E 007°02'0 0.0
2016-Jun-23 02:32N 43°32' E 007°02'0 0.0
2016-Jun-23 01:32N 43°32' E 007°02'0 0.0
2016-Jun-23 00:32N 43°32' E 007°02'0 0.0
2016-Jun-22 23:29N 43°32' E 007°02'0 0.0
2016-Jun-22 22:29N 43°32' E 007°02'0 0.0
2016-Jun-22 21:26N 43°32' E 007°02'0 0.0
2016-Jun-22 20:29N 43°32' E 007°02'0 0.0
2016-Jun-22 19:29N 43°32' E 007°02'0 0.0
2016-Jun-22 18:29N 43°32' E 007°02'0 0.0
2016-Jun-22 17:29N 43°32' E 007°02'0 0.0
2016-Jun-22 16:32N 43°32' E 007°02'0 0.0
2016-Jun-22 15:32N 43°32' E 007°02'0 0.0
2016-Jun-22 14:17N 43°32' E 007°02'0 0.0
2016-Jun-22 13:29N 43°32' E 007°02'0 0.0
2016-Jun-22 12:32N 43°32' E 007°02'0 0.0
2016-Jun-22 11:32N 43°32' E 007°02'0 0.0
2016-Jun-22 10:23N 43°32' E 007°02'0 0.0
2016-Jun-22 09:23N 43°32' E 007°02'0 0.0
2016-Jun-22 08:32N 43°32' E 007°02'0 0.0
2016-Jun-22 07:32N 43°32' E 007°02'0 0.0
2016-Jun-22 06:23N 43°32' E 007°02'0 0.0
2016-Jun-22 05:29N 43°32' E 007°02'0 0.0
2016-Jun-22 04:29N 43°32' E 007°02'0 0.0
2016-Jun-22 03:32N 43°32' E 007°02'0 0.0
2016-Jun-22 02:32N 43°32' E 007°02'0 0.0
2016-Jun-22 01:29N 43°32' E 007°02'0 0.0
2016-Jun-22 00:08N 43°32' E 007°02'0 0.0
2016-Jun-21 23:32N 43°32' E 007°02'0 0.0
2016-Jun-21 22:32N 43°32' E 007°02'0 0.0
2016-Jun-21 20:17N 43°32' E 007°02'0 0.0
2016-Jun-21 19:32N 43°32' E 007°02'0 0.0
2016-Jun-21 18:32N 43°32' E 007°02'0 0.0
2016-Jun-21 17:23N 43°32' E 007°02'0 0.0
2016-Jun-21 16:29N 43°32' E 007°02'0 0.0
2016-Jun-21 15:32N 43°32' E 007°02'0 0.4
2016-Jun-21 14:32N 43°32' E 007°01'0 0.2
2016-Jun-21 13:33N 43°32' E 007°01'  
2016-Jun-19 05:33N 43°23' E 007°01'1111.5
2016-Jun-19 04:34N 43°29' E 007°14'1211.5
2016-Jun-19 03:33N 43°34' E 007°28'4511.2
2016-Jun-18 23:33N 43°55' E 008°23'1110.6
2016-Jun-18 22:33N 44°01' E 008°36'1110.5
2016-Jun-18 21:33N 44°06' E 008°48'1110.7
2016-Jun-18 20:33N 44°12' E 009°00'1010.4
2016-Jun-18 19:33N 44°17' E 009°13'1 1.0
2016-Jun-18 18:23N 44°18' E 009°13'0 0.5
2016-Jun-18 17:33N 44°18' E 009°13'0 0.0
2016-Jun-18 16:27N 44°18' E 009°13'0 0.0
2016-Jun-18 15:33N 44°18' E 009°13'0 0.0
2016-Jun-18 14:33N 44°18' E 009°13'0 0.0
2016-Jun-18 13:33N 44°18' E 009°13'0 0.0
2016-Jun-18 12:30N 44°18' E 009°13'0 0.0
2016-Jun-18 11:33N 44°18' E 009°13'0 0.0
2016-Jun-18 10:33N 44°18' E 009°13'0 0.0
2016-Jun-18 09:33N 44°18' E 009°13'0 0.0
2016-Jun-18 08:30N 44°18' E 009°13'0 0.0
2016-Jun-18 07:33N 44°18' E 009°13'0 0.0
2016-Jun-18 06:33N 44°18' E 009°13'0 0.0
2016-Jun-18 05:33N 44°18' E 009°13'0 0.0
2016-Jun-18 04:27N 44°18' E 009°13'0 0.0
2016-Jun-18 03:33N 44°18' E 009°13'0 0.0
2016-Jun-18 02:30N 44°18' E 009°13'0 0.0
2016-Jun-18 01:33N 44°18' E 009°13'0 0.0
2016-Jun-18 00:33N 44°18' E 009°13'0 0.0
2016-Jun-17 23:30N 44°18' E 009°13'0 0.0
2016-Jun-17 22:33N 44°18' E 009°13'0 0.0
2016-Jun-17 21:27N 44°18' E 009°13'0 0.0
2016-Jun-17 20:33N 44°18' E 009°13'0 0.0
2016-Jun-17 19:30N 44°18' E 009°13'0 0.0
2016-Jun-17 18:15N 44°18' E 009°13'0 0.1
2016-Jun-17 17:28N 44°18' E 009°13'1011.5
2016-Jun-17 16:34N 44°12' E 009°25'1211.9
2016-Jun-17 15:34N 44°06' E 009°39'1010.3
2016-Jun-17 14:33N 44°01' E 009°52'2 2.2
2016-Jun-17 13:31N 44°03' E 009°51'0 0.0
2016-Jun-17 12:31N 44°03' E 009°51'0 0.0
2016-Jun-17 11:31N 44°03' E 009°51'0 0.0
2016-Jun-17 10:31N 44°03' E 009°51'0 0.0
2016-Jun-17 09:31N 44°03' E 009°51'0 0.0
2016-Jun-17 08:31N 44°03' E 009°51'0 0.0
2016-Jun-17 07:31N 44°03' E 009°51'0 0.0
2016-Jun-17 06:31N 44°03' E 009°51'0 0.0
2016-Jun-17 05:31N 44°03' E 009°51'0 0.0
2016-Jun-17 04:31N 44°03' E 009°51'0 0.0
2016-Jun-17 03:31N 44°03' E 009°51'0 0.0
2016-Jun-17 02:31N 44°03' E 009°51'0 0.0
2016-Jun-17 01:31N 44°03' E 009°51'0 0.0
2016-Jun-17 00:31N 44°03' E 009°51'0 0.0
2016-Jun-16 23:28N 44°03' E 009°51'0 0.0
2016-Jun-16 22:31N 44°03' E 009°51'0 0.0
2016-Jun-16 21:31N 44°03' E 009°51'0 0.0
2016-Jun-16 20:31N 44°03' E 009°51'0 0.0
2016-Jun-16 19:31N 44°03' E 009°51'0 0.0
2016-Jun-16 18:31N 44°03' E 009°51'0 0.0
2016-Jun-16 17:31N 44°03' E 009°51'0 0.0
2016-Jun-16 16:31N 44°03' E 009°51'0 0.0
2016-Jun-16 15:31N 44°03' E 009°51'0 0.0
2016-Jun-16 14:28N 44°03' E 009°51'0 0.0
2016-Jun-16 13:31N 44°03' E 009°51'0 0.0
2016-Jun-16 12:31N 44°03' E 009°51'0 0.0
2016-Jun-16 11:31N 44°03' E 009°51'0 0.0
2016-Jun-16 10:28N 44°03' E 009°51'0 0.0
2016-Jun-16 09:31N 44°03' E 009°51'0 0.0
2016-Jun-16 08:31N 44°03' E 009°51'0 0.0
2016-Jun-16 07:31N 44°03' E 009°51'0 0.0
2016-Jun-16 06:31N 44°03' E 009°51'0 0.0
2016-Jun-16 05:31N 44°03' E 009°51'3 2.8
2016-Jun-16 04:34N 44°02' E 009°54'1010.2
2016-Jun-16 03:33N 43°52' E 009°56'1010.2
2016-Jun-16 02:33N 43°42' E 010°01'1010.5
2016-Jun-16 01:34N 43°32' E 010°05'1111.1
2016-Jun-16 00:34N 43°21' E 010°09'1110.8
2016-Jun-15 23:34N 43°11' E 010°13'1111.1
2016-Jun-15 22:33N 42°60' E 010°17'12 2.4
2016-Jun-15 17:33N 42°48' E 010°20'0 0.0
2016-Jun-15 16:33N 42°48' E 010°20'  

Dump ship's entire track history